createdAt,value
2019-03-31T00:01:40.348Z,37.30
2019-03-31T00:04:10.169Z,36.35
2019-03-31T00:06:42.080Z,36.85
2019-03-31T00:09:11.957Z,36.17
2019-03-31T00:11:41.725Z,37.23
2019-03-31T00:14:12.598Z,37.65
2019-03-31T00:17:05.192Z,36.93
2019-03-31T00:19:35.014Z,36.50
2019-03-31T00:22:04.975Z,37.83
2019-03-31T00:24:34.789Z,35.92
2019-03-31T00:27:04.645Z,37.43
2019-03-31T00:29:34.380Z,35.83
2019-03-31T00:32:04.159Z,35.70
2019-03-31T00:34:33.973Z,36.48
2019-03-31T00:37:03.756Z,36.10
2019-03-31T00:39:33.638Z,36.90
2019-03-31T00:42:03.531Z,37.05
2019-03-31T00:44:33.328Z,35.50
2019-03-31T00:47:17.850Z,36.20
2019-03-31T00:49:47.743Z,37.40
2019-03-31T00:52:17.483Z,40.15
2019-03-31T00:54:47.224Z,39.45
2019-03-31T00:57:19.202Z,38.73
2019-03-31T00:59:49.026Z,39.83
2019-03-31T01:02:20.474Z,39.48
2019-03-31T01:04:50.476Z,41.05
2019-03-31T01:07:21.744Z,39.80
2019-03-31T01:09:52.371Z,40.15
2019-03-31T01:12:24.665Z,39.60
2019-03-31T01:14:54.512Z,40.05
2019-03-31T01:17:24.751Z,39.90
2019-03-31T01:19:55.389Z,39.98
2019-03-31T01:22:25.354Z,39.95
2019-03-31T01:24:55.122Z,40.40
2019-03-31T01:27:54.688Z,40.20
2019-03-31T01:30:25.332Z,40.15
2019-03-31T01:32:55.746Z,40.10
2019-03-31T01:35:39.851Z,39.88
2019-03-31T01:38:09.620Z,40.58
2019-03-31T01:40:39.516Z,39.58
2019-03-31T01:43:09.367Z,41.05
2019-03-31T01:45:41.156Z,40.27
2019-03-31T01:48:10.977Z,40.33
2019-03-31T01:50:40.800Z,40.90
2019-03-31T01:53:10.493Z,40.55
2019-03-31T01:55:40.705Z,40.63
2019-03-31T01:58:10.468Z,39.03
2019-03-31T02:00:44.990Z,40.67
2019-03-31T02:03:14.868Z,41.98
2019-03-31T02:08:58.317Z,40.40
2019-03-31T02:11:28.196Z,40.53
2019-03-31T02:13:58.071Z,41.05
2019-03-31T02:16:32.763Z,40.45
2019-03-31T02:19:02.652Z,41.40
2019-03-31T02:21:32.490Z,42.03
2019-03-31T02:24:02.300Z,41.93
2019-03-31T02:26:32.085Z,41.02
2019-03-31T02:29:01.925Z,42.85
2019-03-31T02:31:31.814Z,43.03
2019-03-31T02:34:01.638Z,43.95
2019-03-31T02:36:31.424Z,44.73
2019-03-31T02:39:01.285Z,44.45
2019-03-31T02:41:32.195Z,44.65
2019-03-31T02:44:02.006Z,44.50
2019-03-31T02:46:37.196Z,44.95
2019-03-31T02:49:06.917Z,45.45
2019-03-31T02:51:36.806Z,46.35
2019-03-31T02:54:06.665Z,46.73
2019-03-31T02:56:51.168Z,47.62
2019-03-31T02:59:21.334Z,45.90
2019-03-31T03:01:52.680Z,46.83
2019-03-31T03:04:24.040Z,47.50
2019-03-31T03:06:58.884Z,47.65
2019-03-31T03:09:31.130Z,47.53
2019-03-31T03:12:03.341Z,46.15
2019-03-31T03:14:34.577Z,47.65
2019-03-31T03:17:04.438Z,47.10
2019-03-31T03:19:34.265Z,47.45
2019-03-31T03:22:04.104Z,47.60
2019-03-31T03:24:33.946Z,48.28
2019-03-31T03:27:03.806Z,49.00
2019-03-31T03:29:33.561Z,49.20
2019-03-31T03:32:03.377Z,49.95
2019-03-31T03:34:33.183Z,48.35
2019-03-31T03:37:06.734Z,47.78
2019-03-31T03:39:36.519Z,49.60
2019-03-31T03:42:06.469Z,47.60
2019-03-31T03:44:36.308Z,48.68
2019-03-31T03:47:10.034Z,48.13
2019-03-31T03:49:39.877Z,47.93
2019-03-31T03:52:09.594Z,47.23
2019-03-31T03:54:39.288Z,48.35
2019-03-31T03:57:14.904Z,47.62
2019-03-31T03:59:44.662Z,49.48
2019-03-31T04:02:14.489Z,47.43
2019-03-31T04:04:44.344Z,47.57
2019-03-31T04:07:15.089Z,48.90
2019-03-31T04:09:44.870Z,47.62
2019-03-31T04:12:14.693Z,47.98
2019-03-31T04:14:44.436Z,47.90
2019-03-31T04:17:14.331Z,47.43
2019-03-31T04:19:44.143Z,48.92
2019-03-31T04:22:13.950Z,48.45
2019-03-31T04:24:43.760Z,46.63
2019-03-31T04:27:13.609Z,47.43
2019-03-31T04:29:43.467Z,48.17
2019-03-31T04:32:13.300Z,47.23
2019-03-31T04:34:43.030Z,49.05
2019-03-31T04:37:18.597Z,48.02
2019-03-31T04:39:48.491Z,50.38
2019-03-31T04:42:18.294Z,48.00
2019-03-31T04:44:48.025Z,49.50
2019-03-31T04:47:18.915Z,48.25
2019-03-31T04:49:48.724Z,48.58
2019-03-31T04:52:18.536Z,49.03
2019-03-31T04:54:48.361Z,48.75
2019-03-31T04:57:23.837Z,48.17
2019-03-31T04:59:53.528Z,50.05
2019-03-31T05:02:26.899Z,49.00
2019-03-31T05:04:54.809Z,48.85
2019-03-31T05:07:24.639Z,50.00
2019-03-31T05:09:54.446Z,50.95
2019-03-31T05:12:24.269Z,50.20
2019-03-31T05:14:54.159Z,49.80
2019-03-31T05:17:24.054Z,50.35
2019-03-31T05:19:53.859Z,49.42
2019-03-31T05:22:23.649Z,51.50
2019-03-31T05:24:54.517Z,50.78
2019-03-31T05:27:45.096Z,51.50
2019-03-31T05:30:15.020Z,51.68
2019-03-31T05:32:44.853Z,50.55
2019-03-31T05:35:14.781Z,51.87
2019-03-31T05:37:50.891Z,53.95
2019-03-31T05:40:16.004Z,53.17
2019-03-31T05:42:45.819Z,52.83
2019-03-31T05:45:25.765Z,53.02
2019-03-31T05:47:55.513Z,53.63
2019-03-31T05:50:25.249Z,53.58
2019-03-31T05:52:55.405Z,53.87
2019-03-31T05:55:25.255Z,55.60
2019-03-31T05:57:55.033Z,55.00
2019-03-31T06:00:39.819Z,57.33
2019-03-31T06:03:14.033Z,56.92
2019-03-31T06:05:45.696Z,56.43
2019-03-31T06:08:15.545Z,56.80
2019-03-31T06:10:45.392Z,57.33
2019-03-31T06:13:15.204Z,57.60
2019-03-31T06:16:21.671Z,58.52
2019-03-31T06:18:51.496Z,59.73
2019-03-31T06:21:21.248Z,58.98
2019-03-31T06:23:51.327Z,58.50
2019-03-31T06:26:24.205Z,60.30
2019-03-31T06:28:54.271Z,60.00
2019-03-31T06:31:30.904Z,58.35
2019-03-31T06:34:05.109Z,59.73
2019-03-31T06:36:36.705Z,60.75
2019-03-31T06:39:07.807Z,61.05
2019-03-31T06:41:37.659Z,61.98
2019-03-31T06:44:07.566Z,61.45
2019-03-31T06:46:44.513Z,63.38
2019-03-31T06:49:14.473Z,63.23
2019-03-31T06:51:44.331Z,65.17
2019-03-31T06:54:14.330Z,65.47
2019-03-31T06:56:46.996Z,67.65
2019-03-31T06:59:18.973Z,66.97
2019-03-31T07:01:48.813Z,66.37
2019-03-31T07:04:19.700Z,66.12
2019-03-31T07:06:53.623Z,67.35
2019-03-31T07:09:23.560Z,65.05
2019-03-31T07:11:54.486Z,66.77
2019-03-31T07:14:25.422Z,66.82
2019-03-31T07:17:02.562Z,66.45
2019-03-31T07:19:50.363Z,64.40
2019-03-31T07:22:20.195Z,64.30
2019-03-31T07:24:58.893Z,65.05
2019-03-31T07:27:39.060Z,62.67
2019-03-31T07:30:19.005Z,63.87
2019-03-31T07:32:50.435Z,61.37
2019-03-31T07:35:20.388Z,60.57
2019-03-31T07:41:15.282Z,57.08
2019-03-31T07:43:46.959Z,55.23
2019-03-31T07:46:18.434Z,48.80
2019-03-31T07:48:50.861Z,49.50
2019-03-31T07:51:20.680Z,48.83
2019-03-31T07:53:50.590Z,48.33
2019-03-31T07:56:37.830Z,45.47
2019-03-31T07:59:09.522Z,44.53
2019-03-31T08:01:53.431Z,42.35
2019-03-31T08:04:24.988Z,42.20
2019-03-31T08:07:05.211Z,41.10
2019-03-31T08:09:35.156Z,40.60
2019-03-31T08:12:05.031Z,39.65
2019-03-31T08:14:36.409Z,39.20
2019-03-31T08:17:11.895Z,38.00
2019-03-31T08:19:42.713Z,31.27
2019-03-31T08:22:12.642Z,32.23
2019-03-31T08:24:45.587Z,31.93
2019-03-31T08:33:27.709Z,29.65
2019-03-31T08:36:00.454Z,29.75
2019-03-31T08:38:34.617Z,28.17
2019-03-31T08:41:04.465Z,28.30
2019-03-31T08:43:34.295Z,27.60
2019-03-31T08:46:07.378Z,27.27
2019-03-31T08:48:37.151Z,27.48
2019-03-31T08:51:07.037Z,26.85
2019-03-31T08:53:36.980Z,26.82
2019-03-31T08:56:08.694Z,26.40
2019-03-31T08:58:38.370Z,25.07
2019-03-31T09:01:12.836Z,27.13
2019-03-31T09:03:42.782Z,24.65
2019-03-31T09:06:14.215Z,25.25
2019-03-31T09:08:44.169Z,25.80
2019-03-31T09:11:14.051Z,24.50
2019-03-31T09:13:46.494Z,24.40
2019-03-31T09:16:17.366Z,22.93
2019-03-31T09:18:49.118Z,22.25
2019-03-31T09:21:19.058Z,23.10
2019-03-31T09:23:48.974Z,22.00
2019-03-31T09:26:20.884Z,22.65
2019-03-31T09:28:52.243Z,22.50
2019-03-31T09:31:34.307Z,21.87
2019-03-31T09:33:56.761Z,21.45
2019-03-31T09:36:50.186Z,20.05
2019-03-31T09:39:23.139Z,21.40
2019-03-31T09:41:53.986Z,19.57
2019-03-31T09:44:24.862Z,19.07
2019-03-31T09:46:56.268Z,18.92
2019-03-31T09:49:27.693Z,17.53
2019-03-31T09:51:59.147Z,18.12
2019-03-31T09:54:33.403Z,17.87
2019-03-31T09:57:05.188Z,17.82
2019-03-31T09:59:35.042Z,17.80
2019-03-31T10:02:05.218Z,17.60
2019-03-31T10:04:36.619Z,17.63
2019-03-31T10:07:06.453Z,16.75
2019-03-31T10:09:36.547Z,17.15
2019-03-31T10:12:07.927Z,18.17
2019-03-31T10:14:43.196Z,17.00
2019-03-31T10:17:14.214Z,17.87
2019-03-31T10:19:45.576Z,16.65
2019-03-31T10:22:18.603Z,17.35
2019-03-31T10:24:48.513Z,17.42
2019-03-31T10:27:26.147Z,16.50
2019-03-31T10:29:56.185Z,16.67
2019-03-31T10:32:26.188Z,15.88
2019-03-31T10:34:59.044Z,17.00
2019-03-31T10:37:31.875Z,15.90
2019-03-31T10:40:05.617Z,16.27
2019-03-31T10:42:37.020Z,17.37
2019-03-31T10:45:12.938Z,16.70
2019-03-31T10:47:42.785Z,16.90
2019-03-31T10:50:15.567Z,16.62
2019-03-31T10:52:45.429Z,16.32
2019-03-31T10:55:15.298Z,17.02
2019-03-31T10:57:45.217Z,16.42
2019-03-31T11:00:17.410Z,16.93
2019-03-31T11:02:47.321Z,17.25
2019-03-31T11:05:17.170Z,17.73
2019-03-31T11:07:47.068Z,17.37
2019-03-31T11:10:16.912Z,16.42
2019-03-31T11:12:46.834Z,17.00
2019-03-31T11:15:16.713Z,16.90
2019-03-31T11:17:46.599Z,17.37
2019-03-31T11:20:17.488Z,16.07
2019-03-31T11:23:07.536Z,17.37
2019-03-31T11:25:37.451Z,16.42
2019-03-31T11:28:07.316Z,15.95
2019-03-31T11:30:37.244Z,16.12
2019-03-31T11:33:07.708Z,16.32
2019-03-31T11:35:37.936Z,15.53
2019-03-31T11:38:07.679Z,16.23
2019-03-31T11:40:37.599Z,15.93
2019-03-31T11:43:07.373Z,15.75
2019-03-31T11:45:37.290Z,15.72
2019-03-31T11:48:07.151Z,15.45
2019-03-31T11:50:37.045Z,15.35
2019-03-31T11:53:08.531Z,15.48
2019-03-31T11:55:38.315Z,15.00
2019-03-31T11:58:08.221Z,15.83
2019-03-31T12:00:39.725Z,15.20
2019-03-31T12:03:09.486Z,15.10
2019-03-31T12:06:15.763Z,14.25
2019-03-31T12:08:45.605Z,14.63
2019-03-31T12:11:15.914Z,14.83
2019-03-31T12:13:47.343Z,14.90
2019-03-31T12:16:17.249Z,14.80
2019-03-31T12:18:47.209Z,14.70
2019-03-31T12:21:17.119Z,14.03
2019-03-31T12:23:46.984Z,14.40
2019-03-31T12:26:16.863Z,14.38
2019-03-31T12:28:46.753Z,13.73
2019-03-31T12:31:16.852Z,14.33
2019-03-31T12:33:46.694Z,13.98
2019-03-31T12:36:16.615Z,14.23
2019-03-31T12:38:46.497Z,13.18
2019-03-31T12:41:16.295Z,13.90
2019-03-31T12:43:46.193Z,13.60
2019-03-31T12:46:16.043Z,13.75
2019-03-31T12:48:45.876Z,12.43
2019-03-31T12:51:15.735Z,14.13
2019-03-31T12:53:45.661Z,13.15
2019-03-31T12:56:15.505Z,14.30
2019-03-31T12:58:45.438Z,14.50
2019-03-31T13:01:15.305Z,13.40
2019-03-31T13:03:45.208Z,14.13
2019-03-31T13:06:15.154Z,14.35
2019-03-31T13:08:44.982Z,12.73
2019-03-31T13:11:14.908Z,12.85
2019-03-31T13:13:50.363Z,13.60
2019-03-31T13:16:20.302Z,12.68
2019-03-31T13:18:50.214Z,13.23
2019-03-31T13:21:20.056Z,13.00
2019-03-31T13:23:51.418Z,13.60
2019-03-31T13:26:24.833Z,13.03
2019-03-31T13:28:54.750Z,12.95
2019-03-31T13:31:24.656Z,12.47
2019-03-31T13:33:54.495Z,13.30
2019-03-31T13:36:24.454Z,12.15
2019-03-31T13:38:54.333Z,12.95
2019-03-31T13:41:24.235Z,12.93
2019-03-31T13:43:54.010Z,12.37
2019-03-31T13:46:23.847Z,13.53
2019-03-31T13:48:53.688Z,12.15
2019-03-31T13:51:24.711Z,12.47
2019-03-31T13:53:54.878Z,12.15
2019-03-31T13:56:47.258Z,12.85
2019-03-31T13:59:14.439Z,12.10
2019-03-31T14:01:45.031Z,12.25
2019-03-31T14:04:16.743Z,12.07
2019-03-31T14:06:46.889Z,12.63
2019-03-31T14:09:16.786Z,11.60
2019-03-31T14:11:49.913Z,12.13
2019-03-31T14:14:21.446Z,12.30
2019-03-31T14:16:51.313Z,12.58
2019-03-31T14:19:21.206Z,11.60
2019-03-31T14:21:51.170Z,12.03
2019-03-31T14:24:26.818Z,11.60
2019-03-31T14:26:56.453Z,11.97
2019-03-31T14:29:26.340Z,11.70
2019-03-31T14:31:56.238Z,11.48
2019-03-31T14:34:27.618Z,11.45
2019-03-31T14:37:00.729Z,11.30
2019-03-31T14:39:30.672Z,11.68
2019-03-31T14:42:00.564Z,11.90
2019-03-31T14:44:30.387Z,10.95
2019-03-31T14:47:00.234Z,10.75
2019-03-31T14:49:30.034Z,11.18
2019-03-31T14:52:01.475Z,12.15
2019-03-31T14:54:47.651Z,9.83
2019-03-31T14:57:20.747Z,10.93
2019-03-31T14:59:52.161Z,11.83
2019-03-31T15:02:22.053Z,10.93
2019-03-31T15:04:51.981Z,10.98
2019-03-31T15:07:22.033Z,10.30
2019-03-31T15:09:51.859Z,11.00
2019-03-31T15:12:21.770Z,11.12
2019-03-31T15:14:51.644Z,11.12
2019-03-31T15:17:22.094Z,10.72
2019-03-31T15:19:57.742Z,9.80
2019-03-31T15:22:32.123Z,10.50
2019-03-31T15:25:12.165Z,11.00
2019-03-31T15:27:41.178Z,9.70
2019-03-31T15:30:11.702Z,10.25
2019-03-31T15:32:43.059Z,10.03
2019-03-31T15:35:14.907Z,10.10
2019-03-31T15:37:44.828Z,9.28
2019-03-31T15:40:14.765Z,9.35
2019-03-31T15:42:46.269Z,8.70
2019-03-31T15:45:16.135Z,8.73
2019-03-31T15:47:46.036Z,8.98
2019-03-31T15:50:17.482Z,8.70
2019-03-31T15:52:56.000Z,8.00
2019-03-31T15:55:28.978Z,8.13
2019-03-31T15:57:59.027Z,8.80
2019-03-31T16:00:31.246Z,8.05
2019-03-31T16:03:01.302Z,7.90
2019-03-31T16:05:31.242Z,7.10
2019-03-31T16:08:01.154Z,7.30
2019-03-31T16:10:32.719Z,7.10
2019-03-31T16:13:03.373Z,7.42
2019-03-31T16:15:33.283Z,7.47
2019-03-31T16:18:03.160Z,6.87
2019-03-31T16:20:36.040Z,7.40
2019-03-31T16:23:07.214Z,7.35
2019-03-31T16:25:43.796Z,6.50
2019-03-31T16:28:13.837Z,6.17
2019-03-31T16:30:48.488Z,5.65
2019-03-31T16:33:28.822Z,5.67
2019-03-31T16:36:06.316Z,5.53
2019-03-31T16:38:38.870Z,5.37
2019-03-31T16:41:08.820Z,5.83
2019-03-31T16:43:38.649Z,5.35
2019-03-31T16:46:08.621Z,5.60
2019-03-31T16:48:38.451Z,5.12
2019-03-31T16:51:08.417Z,5.40
2019-03-31T16:53:38.314Z,4.67
2019-03-31T16:56:09.210Z,4.03
2019-03-31T16:58:39.064Z,4.40
2019-03-31T17:01:13.339Z,4.30
2019-03-31T17:04:29.405Z,4.45
2019-03-31T17:06:56.367Z,4.80
2019-03-31T17:13:12.987Z,4.30
2019-03-31T17:15:51.620Z,4.17
2019-03-31T17:18:37.607Z,3.95
2019-03-31T17:21:07.346Z,4.67
2019-03-31T17:23:37.368Z,4.40
2019-03-31T17:26:08.862Z,3.95
2019-03-31T17:28:38.738Z,4.40
2019-03-31T17:31:08.640Z,3.10
2019-03-31T17:33:38.478Z,3.55
2019-03-31T17:36:15.347Z,3.80
2019-03-31T17:38:45.177Z,3.60
2019-03-31T17:41:15.103Z,3.30
2019-03-31T17:43:44.949Z,4.00
2019-03-31T17:46:50.797Z,3.50
2019-03-31T17:49:20.654Z,3.42
2019-03-31T17:51:50.531Z,3.25
2019-03-31T17:54:20.841Z,3.33
2019-03-31T17:57:10.625Z,3.65
2019-03-31T17:59:40.477Z,3.60
2019-03-31T18:02:10.305Z,3.17
2019-03-31T18:04:44.147Z,3.35
2019-03-31T18:07:15.669Z,3.85
2019-03-31T18:09:46.762Z,3.55
2019-03-31T18:12:20.904Z,3.65
2019-03-31T18:14:51.129Z,3.37
2019-03-31T18:17:42.553Z,3.45
2019-03-31T18:20:12.378Z,3.62
2019-03-31T18:22:43.854Z,3.60
2019-03-31T18:25:16.680Z,3.33
2019-03-31T18:27:46.658Z,3.45
2019-03-31T18:30:30.066Z,4.00
2019-03-31T18:33:07.167Z,3.35
2019-03-31T18:36:13.511Z,3.30
2019-03-31T18:38:43.359Z,3.55
2019-03-31T18:41:13.258Z,3.55
2019-03-31T18:43:51.073Z,3.93
2019-03-31T18:46:35.465Z,3.22
2019-03-31T18:49:05.380Z,3.37
2019-03-31T18:51:35.199Z,3.60
2019-03-31T18:54:12.205Z,3.53
2019-03-31T18:56:47.230Z,3.15
2019-03-31T18:59:37.639Z,3.37
2019-03-31T19:02:25.485Z,3.27
2019-03-31T19:05:02.817Z,3.20
2019-03-31T19:07:37.305Z,2.92
2019-03-31T19:10:24.177Z,3.40
2019-03-31T19:12:52.288Z,3.37
2019-03-31T19:15:53.321Z,3.35
2019-03-31T19:18:24.829Z,3.70
2019-03-31T19:21:11.186Z,3.00
2019-03-31T19:23:47.699Z,3.10
2019-03-31T19:26:47.616Z,3.12
2019-03-31T19:29:28.289Z,3.00
2019-03-31T19:32:08.749Z,3.40
2019-03-31T19:34:40.297Z,3.08
2019-03-31T19:37:21.316Z,3.58
2019-03-31T19:40:01.636Z,3.17
2019-03-31T19:42:33.064Z,3.10
2019-03-31T19:45:10.802Z,3.33
2019-03-31T19:47:48.166Z,3.20
2019-03-31T19:50:36.091Z,3.27
2019-03-31T19:53:07.595Z,3.22
2019-03-31T19:56:07.310Z,3.00
2019-03-31T19:58:37.294Z,3.00
2019-03-31T20:01:08.738Z,3.55
2019-03-31T20:03:42.839Z,3.00
2019-03-31T20:06:26.244Z,2.98
2019-03-31T20:08:57.719Z,3.02
2019-03-31T20:11:29.202Z,3.40
2019-03-31T20:14:16.943Z,3.12
2019-03-31T20:16:48.421Z,3.30
2019-03-31T20:19:19.934Z,3.05
2019-03-31T20:21:51.365Z,3.55
2019-03-31T20:24:25.806Z,3.35
2019-03-31T20:27:15.166Z,3.47
2019-03-31T20:29:46.694Z,3.60
2019-03-31T20:32:23.922Z,3.42
2019-03-31T20:35:11.608Z,2.95
2019-03-31T20:37:43.006Z,3.37
2019-03-31T20:40:14.545Z,3.00
2019-03-31T20:42:51.825Z,3.25
2019-03-31T20:45:22.736Z,2.98
2019-03-31T20:47:52.586Z,3.00
2019-03-31T20:50:22.498Z,3.20
2019-03-31T20:52:52.327Z,2.80
2019-03-31T20:55:22.354Z,2.80
2019-03-31T20:57:54.929Z,2.67
2019-03-31T21:00:24.821Z,2.72
2019-03-31T21:02:57.722Z,2.60
2019-03-31T21:05:34.704Z,2.70
2019-03-31T21:08:07.406Z,2.62
2019-03-31T21:10:37.235Z,2.27
2019-03-31T21:13:07.084Z,2.10
2019-03-31T21:15:37.973Z,2.45
2019-03-31T21:18:07.889Z,2.25
2019-03-31T21:20:37.745Z,2.40
2019-03-31T21:23:07.657Z,2.27
2019-03-31T21:25:37.541Z,2.70
2019-03-31T21:28:07.431Z,2.67
2019-03-31T21:30:38.458Z,2.20
2019-03-31T21:33:08.337Z,2.20
2019-03-31T21:35:42.591Z,2.42
2019-03-31T21:38:12.440Z,2.67
2019-03-31T21:40:42.333Z,2.20
2019-03-31T21:43:12.016Z,2.22
2019-03-31T21:45:47.000Z,2.42
2019-03-31T21:48:16.886Z,2.17
2019-03-31T21:50:48.643Z,2.33
2019-03-31T21:53:18.484Z,2.20
2019-03-31T21:55:53.529Z,2.35
2019-03-31T21:58:23.402Z,2.25
2019-03-31T22:00:55.922Z,2.33
2019-03-31T22:03:28.217Z,2.12
2019-03-31T22:06:04.435Z,2.47
2019-03-31T22:08:34.365Z,2.33
2019-03-31T22:11:04.275Z,2.20
2019-03-31T22:13:34.122Z,2.70
2019-03-31T22:16:34.254Z,2.25
2019-03-31T22:19:05.691Z,2.08
2019-03-31T22:21:35.603Z,2.25
2019-03-31T22:24:05.482Z,2.30
2019-03-31T22:26:37.403Z,2.50
2019-03-31T22:29:07.294Z,2.17
2019-03-31T22:31:37.201Z,2.12
2019-03-31T22:34:07.072Z,2.20
2019-03-31T22:36:37.794Z,2.05
2019-03-31T22:39:09.207Z,2.40
2019-03-31T22:41:39.019Z,2.10
2019-03-31T22:44:08.858Z,2.25
2019-03-31T22:46:53.655Z,2.03
2019-03-31T22:49:12.153Z,2.33
2019-03-31T22:51:42.046Z,2.30
2019-03-31T22:54:12.889Z,2.15
2019-03-31T22:56:42.768Z,2.08
2019-03-31T22:59:16.202Z,2.23
2019-03-31T23:01:47.151Z,2.00
2019-03-31T23:04:17.013Z,2.30
2019-03-31T23:06:58.650Z,2.22
2019-03-31T23:09:28.498Z,2.27
2019-03-31T23:11:58.413Z,2.27
2019-03-31T23:14:28.267Z,1.82
2019-03-31T23:16:58.105Z,2.33
2019-03-31T23:19:27.887Z,2.30
2019-03-31T23:21:57.805Z,2.50
2019-03-31T23:24:27.625Z,2.27
2019-03-31T23:27:03.068Z,2.50
2019-03-31T23:29:32.959Z,2.50
2019-03-31T23:32:02.859Z,2.40
2019-03-31T23:34:32.677Z,2.67
2019-03-31T23:37:07.966Z,2.65
2019-03-31T23:39:37.815Z,2.25
2019-03-31T23:42:07.720Z,2.20
2019-03-31T23:44:37.591Z,2.45
2019-03-31T23:47:08.500Z,2.50
2019-03-31T23:49:38.347Z,2.30
2019-03-31T23:52:08.234Z,2.30
2019-03-31T23:54:38.109Z,2.37
2019-03-31T23:57:08.165Z,2.55
2019-03-31T23:59:38.056Z,2.27
